Terminal Aerodrome Forecast
Issued by NWS

Home | Current Version | Previous Version | Text Only | Print | Product List | Glossary Off
Versions: 1 2 3 4 5 6 7 8 9 10 11 12 13 14 15 16

620
FTUS43 KICT 271854 AAA
TAFCNU
TAF AMD
KCNU 271854Z 2719/2818 36012G22KT P6SM BKN015
     FM272100 17012KT P6SM VCTS BKN030CB
     FM280600 33009KT P6SM BKN070
     FM280900 33012KT P6SM BKN015
     FM281100 33011KT P6SM BKN030
     FM281700 33008KT P6SM FEW130=

USA.gov is the U.S. government's official web portal to all federal, state and local government web resources and services.